Relevés horaires Elsenborn (Belgique)


Relevés horaires à Elsenborn - Vendredi 19 Juill. 2019
Heure UTC1 Température [°C] Vent [km/h] Hum. [%] Pres.4 [hPa] Visi. [Km] Nébu. [octa] Préc.5 [mm] Cond.
2m. Res. Ros. Dir.2 Vit. Moy. Raf.3
20:00 16.3 16.3 12.5 NNO 1.9 -- 3.7 78 1014.7(0.1/3h) 20 -- -- --
19:00 18.0 18.0 12.2 NNO 3.7 -- 5.6 69 1014.3(-0.1/3h) 20 -- -- --
18:00 19.0 19.0 11.7 SO 3.7 -- 14.8 63 1014.2(-0.1/3h) 20 -- -- --
17:00 19.8 19.8 10.6 SO 5.6 -- 9.3 55 1013.8(-0.6/3h) 20 -- -- --
16:00 20.8 20.8 10.3 SO 5.6 -- 11.1 51 1014(-0.4/3h) 20 -- -- --
15:00 20.2 20.2 9.3 SO 7.4 -- 14.8 49 1014.1(-0.2/3h) 20 -- -- --
14:00 19.5 19.5 9.9 SO 5.6 -- 14.8 54 1014.7(0.1/3h) 20 -- -- --
13:00 19.3 19.3 9.0 OSO 7.4 -- 13.0 51 1014.7(0.1/3h) 20 -- -- --
12:00 19.8 19.8 10.5 OSO 5.6 -- 14.8 55 1014.3(0.0/3h) 20 -- -- NA
11:00 17.6 17.6 11.0 OSO 5.6 -- 13.0 65 1014.8(0.3/3h) 20 -- -- --
10:00 16.5 16.5 11.0 OSO 7.4 -- 13.0 70 1015.2(0.5/3h) 20 -- -- --
10:00 16.5 16.5 11.0 OSO 7.4 -- 13.0 70 1015.2(0.5/3h) 20 -- -- --
10:00 16.5 16.5 11.0 OSO 7.4 -- 13.0 70 1015.2(0.5/3h) 20 -- -- --
10:00 16.5 16.5 11.0 OSO 7.4 -- 13.0 70 1015.2(0.5/3h) 20 -- -- --
09:00 16.2 16.2 11.3 O 7.4 -- 14.8 73 1015.1(0.8/3h) 20 -- -- NA
09:00 16.2 16.2 11.3 O 7.4 -- 14.8 73 1015.1(0.8/3h) 20 -- -- NA
08:00 15.7 15.7 12.2 SO 5.6 -- 11.1 80 1014.8(0.9/3h) 20 -- -- --
08:00 15.7 15.7 12.2 SO 5.6 -- 11.1 80 1014.8(0.9/3h) 20 -- -- --
07:00 14.6 14.6 13.3 O 5.6 -- 9.3 92 1014.8(0.7/3h) 16 -- -- NA
07:00 14.6 14.6 13.3 O 5.6 -- 9.3 92 1014.8(0.7/3h) 16 -- -- NA
06:00 14.3 14.3 13.5 OSO 3.7 -- 7.4 95 1014.6(0.3/3h) 18 -- 3/12h
NA
06:00 14.3 14.3 13.5 OSO 3.7 -- 7.4 95 1014.6(0.3/3h) 18 -- 3/12h
NA
05:00 14.1 14.1 13.9 NNO 1.9 -- 5.6 99 1014.2(0.0/3h) 7 -- -- --
05:00 14.1 14.1 13.9 NNO 1.9 -- 5.6 99 1014.2(0.0/3h) 7 -- -- --

1 Coordinated Universal Time. Actuellement il est 23:00 locale et 21:00 UTC.

2 Le vent souffle depuis la direction indiquée vers la direction oposée.

3 Les rafales max. sont disponible 40 min après l'heure du relevé.

4 Pour les stations d'altitude (plus de 600m) le géopotentiel du niveau le plus proche de la pression obligatoire est indiqué.

5 Les stations disposant d'un diffuseur peuvent indiquer "trace". Cela signifie que des précipitations ont touchés le sol mais que la quantité est inférieure à 0.1 mm.

Récapitulatif de la journée
Température [°C] Vent [km/h] Ensoleillement4 [h] Precipitations totale5 [mm] Pression [Hpa]
Min1 Max.2 Moy.3 Max. Min Max.
13.6 21.2 0 14.8 0 h 0 min 0 1013.8 1015.2

1 Température minimale relevée entre 18:00 UTC la veille et 18:00 UTC le jour donné.

2 Température maximale relevée entre 06:00 UTC le jour donné et 06:00 UTC le lendemain.

3 Vent moyen de la journée basé sur les relevés horaires.

4 Ensoleillement en heures relevé entre 06:00 UTC la veille et 06:00 UTC le jour donné.

5 Précipitations totales tombées entre 06:00 UTC la jour donné et 06:00 UTC le lendemain.

Graphiques horaires